ěÝzenÝ letovÚho provozu ╚eskÚ republiky
Letiste: LKKB Aktualizace: 27.02.2024 14:03:40  UTC
 METAR LKKB 27.02. 14:00 COR
METAR COR LKKB 271400Z 34004KT 9000 FEW012 SCT090 BKN130 08/04 Q1012 NOSIG RMK BLU BLU=
 TAF LKKB 27.02. 11:00 ...
TAF LKKB 271100Z 2712/2812 VRB02KT 3000 BR BKN005      PROB30 TEMPO 2712/2714 0900 FG OVC003      BECMG 2712/2715 35006KT 9999 SCT020      BECMG 2717/2719 33008KT      BECMG 2723/2801 5000 BR SCT010      TEMPO 2802/2807 1500 BR BKN005      BECMG 2810/2812 33010KT=